Time;durP1;ratioP1;P1;durP2;ratioP2;P2;SDS_P1;SDS_P2;PMS_P1;PMS_P2;Temp;Humidity;BMP_temperature;BMP_pressure;BME280_temperature;BME280_humidity;BME280_pressure;Samples;Min_cycle;Max_cycle;Signal;HPM_P1;HPM_P2
2023/05/05 00:00:52;;;;;;;6.82;3.28;;;13.30;99.90;;;;;;4988089;28;20069;-86
2023/05/05 00:03:21;;;;;;;5.88;3.45;;;13.30;99.90;;;;;;5001279;28;20062;-86
2023/05/05 00:05:48;;;;;;;10.50;4.18;;;13.20;99.90;;;;;;5009045;28;20291;-86
2023/05/05 00:08:14;;;;;;;8.95;3.90;;;13.20;99.90;;;;;;5002815;28;20802;-85
2023/05/05 00:10:41;;;;;;;9.95;3.90;;;13.20;99.90;;;;;;5010000;28;20035;-86
2023/05/05 00:13:07;;;;;;;9.18;3.88;;;13.20;99.90;;;;;;5004808;28;20072;-86
2023/05/05 00:15:33;;;;;;;8.93;3.70;;;13.10;99.90;;;;;;5000946;28;20080;-86
2023/05/05 00:17:59;;;;;;;12.93;3.78;;;13.10;99.90;;;;;;5003875;28;20072;-86
2023/05/05 00:20:27;;;;;;;7.50;3.88;;;13.10;99.90;;;;;;4997774;28;20129;-85
2023/05/05 00:22:52;;;;;;;6.60;3.55;;;13.00;99.90;;;;;;4982113;28;20038;-85
2023/05/05 00:25:18;;;;;;;9.43;3.63;;;13.00;99.90;;;;;;5004453;28;20046;-85
2023/05/05 00:27:46;;;;;;;9.90;3.47;;;13.00;99.90;;;;;;4996721;28;20089;-86
2023/05/05 00:30:12;;;;;;;5.95;4.00;;;13.00;99.90;;;;;;5007522;28;20132;-86
2023/05/05 00:32:38;;;;;;;9.70;3.95;;;13.00;99.90;;;;;;4995777;28;20054;-84
2023/05/05 00:35:05;;;;;;;7.88;3.55;;;13.00;99.90;;;;;;5012628;28;20041;-83
2023/05/05 00:37:31;;;;;;;6.53;3.60;;;12.90;99.90;;;;;;4998476;28;20505;-84
2023/05/05 00:39:57;;;;;;;9.27;4.22;;;12.90;99.90;;;;;;4998065;28;20042;-84
2023/05/05 00:42:23;;;;;;;7.78;3.75;;;12.90;99.90;;;;;;4994330;28;20046;-84
2023/05/05 00:44:49;;;;;;;7.68;4.18;;;12.90;99.90;;;;;;5003283;28;20108;-84
2023/05/05 00:47:15;;;;;;;10.60;4.65;;;12.80;99.90;;;;;;4997914;28;20038;-84
2023/05/05 00:49:42;;;;;;;7.30;3.80;;;12.80;99.90;;;;;;4997602;28;20034;-84
2023/05/05 00:52:09;;;;;;;8.10;4.00;;;12.80;99.90;;;;;;4997357;28;20093;-84
2023/05/05 00:54:34;;;;;;;7.07;3.50;;;12.80;99.90;;;;;;5002926;28;20049;-84
2023/05/05 00:57:03;;;;;;;8.75;3.80;;;12.80;99.90;;;;;;5002823;28;20042;-84
2023/05/05 00:59:31;;;;;;;9.07;3.78;;;12.70;99.90;;;;;;4996263;28;20049;-84
2023/05/05 01:01:57;;;;;;;6.78;3.63;;;12.70;99.90;;;;;;4996196;28;20113;-84
2023/05/05 01:04:26;;;;;;;7.43;3.88;;;12.70;99.90;;;;;;5002432;28;20042;-84
2023/05/05 01:07:11;;;;;;;7.63;3.53;;;12.70;99.90;;;;;;5003707;28;20042;-85
2023/05/05 01:09:50;;;;;;;9.57;4.15;;;12.70;99.90;;;;;;4999173;28;20052;-84
2023/05/05 01:13:03;;;;;;;9.50;3.78;;;12.70;99.90;;;;;;4996299;28;20039;-85
2023/05/05 01:15:33;;;;;;;7.90;3.20;;;12.60;99.90;;;;;;4931444;29;20036;-84
2023/05/05 01:18:34;;;;;;;9.98;4.18;;;12.60;99.90;;;;;;4904430;29;20086;-84
2023/05/05 01:21:35;;;;;;;8.18;3.85;;;12.50;99.90;;;;;;4904641;29;20052;-84
2023/05/05 01:24:13;;;;;;;10.82;4.15;;;12.50;99.90;;;;;;4913399;29;20063;-84
2023/05/05 01:27:01;;;;;;;7.32;3.65;;;12.50;99.90;;;;;;4896092;29;20099;-84
2023/05/05 01:30:00;;;;;;;7.50;3.60;;;12.40;99.90;;;;;;4917339;29;20062;-84
2023/05/05 01:32:30;;;;;;;5.50;3.50;;;12.40;99.90;;;;;;4916176;29;20458;-84
2023/05/05 01:35:13;;;;;;;8.13;3.50;;;12.40;99.90;;;;;;4920319;29;20055;-84
2023/05/05 01:38:04;;;;;;;8.80;3.60;;;12.40;99.90;;;;;;4923918;29;20063;-84
2023/05/05 01:40:35;;;;;;;7.10;3.60;;;12.40;99.90;;;;;;4938867;29;20052;-84
2023/05/05 01:43:05;;;;;;;7.90;3.72;;;12.30;99.90;;;;;;4917925;29;20048;-84
2023/05/05 01:45:36;;;;;;;5.70;3.45;;;12.30;99.90;;;;;;4944058;28;20041;-84
2023/05/05 01:48:05;;;;;;;9.02;3.55;;;12.30;99.90;;;;;;4998457;28;20053;-85
2023/05/05 01:50:31;;;;;;;7.63;3.40;;;12.30;99.90;;;;;;4992676;28;20038;-84
2023/05/05 01:52:57;;;;;;;10.30;3.22;;;12.30;99.90;;;;;;5009518;28;20081;-84
2023/05/05 01:55:25;;;;;;;7.80;3.47;;;12.30;99.90;;;;;;5001154;28;20038;-84
2023/05/05 01:57:52;;;;;;;11.82;4.20;;;12.40;99.90;;;;;;5003413;28;20520;-84
2023/05/05 02:00:19;;;;;;;8.38;3.60;;;12.20;99.90;;;;;;5005295;28;20056;-84
2023/05/05 02:02:47;;;;;;;8.38;3.70;;;12.20;99.90;;;;;;4997874;28;20092;-84
2023/05/05 02:05:18;;;;;;;10.57;3.80;;;12.20;99.90;;;;;;4998471;28;20046;-84
2023/05/05 02:07:45;;;;;;;6.00;3.47;;;12.20;99.90;;;;;;4996471;28;20042;-84
2023/05/05 02:10:12;;;;;;;7.47;3.50;;;12.20;99.90;;;;;;5009670;28;20037;-84
2023/05/05 02:12:40;;;;;;;6.82;3.78;;;12.20;99.90;;;;;;4989144;28;20101;-84
2023/05/05 02:15:08;;;;;;;10.95;3.80;;;12.20;99.90;;;;;;4995096;28;20069;-84
2023/05/05 02:17:34;;;;;;;11.00;4.07;;;12.20;99.90;;;;;;4994408;28;20509;-84
2023/05/05 02:20:02;;;;;;;8.02;3.58;;;12.10;99.90;;;;;;5005294;28;20049;-84
2023/05/05 02:22:28;;;;;;;9.27;4.18;;;12.10;99.90;;;;;;4999095;28;20039;-84
2023/05/05 02:24:54;;;;;;;9.50;3.38;;;12.10;99.90;;;;;;4991866;28;20115;-84
2023/05/05 02:27:23;;;;;;;6.80;3.90;;;12.10;99.90;;;;;;5001440;28;20050;-84
2023/05/05 02:29:56;;;;;;;8.40;3.80;;;12.10;99.90;;;;;;5003207;28;20065;-84
2023/05/05 02:32:36;;;;;;;9.02;3.63;;;12.10;99.90;;;;;;4997651;28;20481;-84
2023/05/05 02:35:13;;;;;;;7.05;3.97;;;12.30;99.90;;;;;;5024551;28;20242;-84
2023/05/05 02:37:43;;;;;;;6.93;4.22;;;12.10;99.90;;;;;;5008168;28;20041;-84
2023/05/05 02:40:11;;;;;;;10.85;3.95;;;12.10;99.90;;;;;;5017201;28;20037;-84
2023/05/05 02:42:43;;;;;;;9.18;4.30;;;12.10;99.90;;;;;;5016121;28;20042;-84
2023/05/05 02:45:13;;;;;;;8.88;3.58;;;12.10;99.90;;;;;;5008306;28;20407;-83
2023/05/05 02:47:38;;;;;;;13.85;4.53;;;12.00;99.90;;;;;;5000556;28;20042;-84
2023/05/05 02:50:06;;;;;;;9.98;4.28;;;12.00;99.90;;;;;;5014309;28;20519;-83
2023/05/05 02:52:32;;;;;;;9.68;3.50;;;12.00;99.90;;;;;;4980349;28;20042;-84
2023/05/05 02:54:59;;;;;;;6.90;3.75;;;12.00;99.90;;;;;;5012736;28;20033;-83
2023/05/05 02:57:34;;;;;;;7.25;3.83;;;11.90;99.90;;;;;;5018187;28;20048;-83
2023/05/05 03:00:06;;;;;;;6.57;4.00;;;12.00;99.90;;;;;;5018936;28;20033;-83
2023/05/05 03:03:04;;;;;;;7.57;3.65;;;12.00;99.90;;;;;;5011458;28;20102;-83
2023/05/05 03:05:38;;;;;;;7.78;3.55;;;11.90;99.90;;;;;;5003689;28;20042;-83
2023/05/05 03:08:12;;;;;;;8.32;4.22;;;11.90;99.90;;;;;;5001898;28;20034;-83
2023/05/05 03:10:49;;;;;;;8.45;4.55;;;12.00;99.90;;;;;;5004214;28;20045;-84
2023/05/05 03:13:18;;;;;;;11.45;3.88;;;11.90;99.90;;;;;;4988119;28;20053;-83
2023/05/05 03:15:48;;;;;;;8.55;3.90;;;11.90;99.90;;;;;;4996083;28;20048;-84
2023/05/05 03:18:16;;;;;;;7.43;3.80;;;11.80;99.90;;;;;;5017131;28;20097;-84
2023/05/05 03:20:42;;;;;;;7.05;3.80;;;11.80;99.90;;;;;;4996387;28;20424;-83
2023/05/05 03:23:09;;;;;;;9.52;4.18;;;11.80;99.90;;;;;;5000128;28;20046;-83
2023/05/05 03:25:45;;;;;;;9.40;3.88;;;11.80;99.90;;;;;;5013889;28;20136;-83
2023/05/05 03:28:10;;;;;;;10.98;4.22;;;11.80;99.90;;;;;;4983313;28;20050;-84
2023/05/05 03:30:36;;;;;;;8.63;4.03;;;11.80;99.90;;;;;;5001629;28;20441;-84
2023/05/05 03:33:02;;;;;;;8.70;4.07;;;11.80;99.90;;;;;;5003769;28;20123;-83
2023/05/05 03:35:29;;;;;;;7.30;4.15;;;11.80;99.90;;;;;;4999901;28;20142;-84
2023/05/05 03:37:54;;;;;;;6.80;4.40;;;11.90;99.90;;;;;;5018517;28;20169;-83
2023/05/05 03:40:21;;;;;;;7.53;4.32;;;11.70;99.90;;;;;;4997940;28;20499;-84
2023/05/05 03:42:47;;;;;;;9.82;4.68;;;11.70;99.90;;;;;;5005731;28;20503;-83
2023/05/05 03:45:14;;;;;;;8.95;4.18;;;11.70;99.90;;;;;;4997449;28;20135;-83
2023/05/05 03:47:40;;;;;;;8.43;4.60;;;11.70;99.90;;;;;;5013163;28;20111;-83
2023/05/05 03:50:06;;;;;;;7.28;4.18;;;11.70;99.90;;;;;;4995307;28;20524;-83
2023/05/05 03:52:32;;;;;;;8.77;4.43;;;11.70;99.90;;;;;;4995047;28;20294;-83
2023/05/05 03:54:58;;;;;;;7.25;4.22;;;11.70;99.90;;;;;;5012557;28;20030;-83
2023/05/05 03:57:25;;;;;;;9.23;4.72;;;11.70;99.90;;;;;;5012535;28;20550;-83
2023/05/05 03:59:51;;;;;;;9.20;4.40;;;11.60;99.90;;;;;;4988908;28;20037;-83
2023/05/05 04:02:17;;;;;;;7.68;4.63;;;11.60;99.90;;;;;;5007950;28;20052;-83
2023/05/05 04:04:43;;;;;;;8.25;4.38;;;11.60;99.90;;;;;;5013937;28;20029;-83
2023/05/05 04:07:10;;;;;;;9.18;4.07;;;11.60;99.90;;;;;;5012946;28;20476;-83
2023/05/05 04:09:38;;;;;;;9.05;4.35;;;11.60;99.90;;;;;;4999128;28;20030;-83
2023/05/05 04:12:04;;;;;;;11.32;4.57;;;11.60;99.90;;;;;;4994968;28;20113;-84
2023/05/05 04:14:29;;;;;;;7.85;4.38;;;11.70;99.90;;;;;;4998664;28;20454;-84
2023/05/05 04:16:55;;;;;;;8.32;4.20;;;11.70;99.90;;;;;;5023180;28;20057;-84
2023/05/05 04:19:21;;;;;;;8.45;4.35;;;11.70;99.90;;;;;;4994711;28;20050;-84
2023/05/05 04:21:47;;;;;;;9.07;4.93;;;11.70;99.90;;;;;;4995028;28;20052;-83
2023/05/05 04:24:12;;;;;;;9.93;4.82;;;11.70;99.90;;;;;;5016042;28;20044;-83
2023/05/05 04:26:38;;;;;;;12.95;5.20;;;11.70;99.90;;;;;;5016374;28;20049;-83
2023/05/05 04:29:03;;;;;;;10.77;4.47;;;11.60;99.90;;;;;;5020651;28;20458;-83
2023/05/05 04:31:30;;;;;;;9.20;4.50;;;11.60;99.90;;;;;;5022827;28;20046;-84
2023/05/05 04:33:56;;;;;;;7.45;4.80;;;11.60;99.90;;;;;;5015859;28;20050;-84
2023/05/05 04:36:22;;;;;;;11.15;4.93;;;11.60;99.90;;;;;;4998204;28;20069;-84
2023/05/05 04:38:50;;;;;;;13.65;6.18;;;11.60;99.90;;;;;;4999905;28;20534;-84
2023/05/05 04:41:15;;;;;;;8.82;5.13;;;11.60;99.90;;;;;;5014392;28;20061;-83
2023/05/05 04:43:41;;;;;;;10.07;5.90;;;11.60;99.90;;;;;;5014046;28;20037;-83
2023/05/05 04:46:07;;;;;;;12.98;6.25;;;11.50;99.90;;;;;;5013362;28;20069;-83
2023/05/05 04:48:33;;;;;;;11.77;6.22;;;11.60;99.90;;;;;;5024407;28;20029;-83
2023/05/05 04:51:03;;;;;;;12.00;6.22;;;11.60;99.90;;;;;;4994649;28;20117;-83
2023/05/05 04:53:29;;;;;;;7.72;5.18;;;11.50;99.90;;;;;;5012831;28;20168;-83
2023/05/05 04:55:55;;;;;;;10.02;5.40;;;11.50;99.90;;;;;;5000441;28;20042;-83
2023/05/05 04:58:20;;;;;;;10.95;5.90;;;11.50;99.90;;;;;;4988210;28;20055;-84
2023/05/05 05:00:46;;;;;;;10.38;6.15;;;11.50;99.90;;;;;;5022520;28;20044;-82
2023/05/05 05:03:12;;;;;;;12.38;7.38;;;11.40;99.90;;;;;;5016419;28;20046;-84
2023/05/05 05:05:38;;;;;;;12.60;6.30;;;11.40;99.90;;;;;;4995627;28;20755;-84
2023/05/05 05:08:04;;;;;;;8.52;5.97;;;11.30;99.90;;;;;;5015354;28;20045;-84
2023/05/05 05:10:30;;;;;;;18.23;6.70;;;11.30;99.90;;;;;;5002562;28;20042;-84
2023/05/05 05:12:56;;;;;;;16.50;6.32;;;11.20;99.90;;;;;;5055244;23;20062;-84
2023/05/05 05:15:24;;;;;;;16.35;7.40;;;11.60;99.90;;;;;;5002327;28;20056;-83
2023/05/05 05:17:50;;;;;;;13.30;6.95;;;11.20;99.90;;;;;;4986169;28;20137;-84
2023/05/05 05:20:16;;;;;;;12.45;7.00;;;11.20;99.90;;;;;;5028158;28;20118;-83
2023/05/05 05:22:42;;;;;;;12.68;6.50;;;11.20;99.90;;;;;;5002890;28;20146;-84
2023/05/05 05:25:08;;;;;;;14.15;7.43;;;11.20;99.90;;;;;;4989811;28;20034;-84
2023/05/05 05:27:33;;;;;;;10.65;7.03;;;11.20;99.90;;;;;;4981705;28;20381;-83
2023/05/05 05:29:59;;;;;;;10.40;6.63;;;11.20;99.90;;;;;;5007003;28;20045;-90
2023/05/05 05:32:25;;;;;;;11.23;6.88;;;11.10;99.90;;;;;;4990560;28;20381;-87
2023/05/05 05:34:50;;;;;;;10.63;6.43;;;11.10;99.90;;;;;;5018175;28;20042;-85
2023/05/05 05:37:16;;;;;;;11.82;6.88;;;11.10;99.90;;;;;;5021928;28;20083;-85
2023/05/05 05:39:42;;;;;;;10.20;6.03;;;11.10;99.90;;;;;;5005972;28;20330;-85
2023/05/05 05:42:07;;;;;;;14.63;7.85;;;11.20;99.90;;;;;;5000135;28;20406;-86
2023/05/05 05:44:33;;;;;;;12.88;6.38;;;11.20;99.90;;;;;;4994453;28;20089;-85
2023/05/05 05:46:58;;;;;;;11.15;6.78;;;11.20;99.90;;;;;;4997311;28;20424;-86
2023/05/05 05:49:24;;;;;;;11.10;6.78;;;11.20;99.90;;;;;;5001990;28;20132;-85
2023/05/05 05:51:50;;;;;;;16.80;6.43;;;11.30;99.90;;;;;;4991470;28;20041;-86
2023/05/05 05:54:15;;;;;;;11.90;7.18;;;11.30;99.90;;;;;;5002846;28;20049;-86
2023/05/05 05:56:41;;;;;;;12.75;6.97;;;11.30;99.90;;;;;;5000739;28;20041;-86
2023/05/05 05:59:08;;;;;;;15.50;7.68;;;11.50;99.90;;;;;;4982135;28;20064;-85
2023/05/05 06:01:35;;;;;;;12.48;6.60;;;11.40;99.90;;;;;;5014349;28;20053;-85
2023/05/05 06:04:01;;;;;;;9.77;7.10;;;11.40;99.90;;;;;;5016215;28;20065;-86
2023/05/05 06:06:27;;;;;;;11.73;6.95;;;11.40;99.90;;;;;;5017460;28;20484;-85
2023/05/05 06:08:52;;;;;;;10.60;7.18;;;11.40;99.90;;;;;;5017216;28;20046;-92
2023/05/05 06:11:18;;;;;;;9.98;6.57;;;11.40;99.90;;;;;;5013641;28;20042;-86
2023/05/05 06:13:44;;;;;;;11.80;7.20;;;11.40;99.90;;;;;;4996219;28;20064;-86
2023/05/05 06:16:09;;;;;;;11.80;7.07;;;11.40;99.90;;;;;;4997599;28;20084;-85
2023/05/05 06:18:35;;;;;;;12.02;7.22;;;11.50;99.90;;;;;;4984790;28;20408;-85
2023/05/05 06:21:01;;;;;;;12.45;6.78;;;11.50;99.90;;;;;;5017153;28;20069;-86
2023/05/05 06:23:27;;;;;;;10.27;7.78;;;11.50;99.90;;;;;;4993650;28;20050;-85
2023/05/05 06:25:54;;;;;;;15.13;8.10;;;11.60;99.90;;;;;;5006609;28;20121;-85
2023/05/05 06:28:20;;;;;;;10.02;5.72;;;11.60;99.90;;;;;;5013782;28;20112;-84
2023/05/05 06:30:45;;;;;;;11.55;7.30;;;11.60;99.90;;;;;;5020844;28;20298;-89
2023/05/05 06:33:11;;;;;;;15.52;8.88;;;11.70;99.90;;;;;;4981763;28;20053;-89
2023/05/05 06:35:37;;;;;;;14.25;7.50;;;11.80;99.90;;;;;;5006408;28;20049;-89
2023/05/05 06:38:03;;;;;;;13.93;7.85;;;11.90;99.90;;;;;;5003176;28;20037;-89
2023/05/05 06:40:28;;;;;;;12.18;7.70;;;11.90;99.90;;;;;;4981914;28;20055;-88
2023/05/05 06:42:54;;;;;;;11.57;7.20;;;12.10;99.90;;;;;;5025576;28;20030;-90
2023/05/05 06:45:20;;;;;;;15.68;7.88;;;12.20;99.90;;;;;;4997136;28;20450;-85
2023/05/05 06:47:46;;;;;;;10.10;7.70;;;12.30;99.90;;;;;;5004254;28;20041;-87
2023/05/05 06:50:12;;;;;;;12.45;7.07;;;12.30;99.90;;;;;;5002639;28;20030;-88
2023/05/05 06:52:37;;;;;;;10.00;6.65;;;12.30;99.90;;;;;;5022762;28;20038;-87
2023/05/05 06:55:03;;;;;;;11.35;7.03;;;12.40;99.90;;;;;;4997685;28;20042;-93
2023/05/05 06:57:29;;;;;;;17.52;8.30;;;12.40;99.90;;;;;;5015163;28;20034;-87
2023/05/05 06:59:54;;;;;;;8.43;6.47;;;12.50;99.90;;;;;;5000830;28;20488;-89
2023/05/05 07:02:20;;;;;;;18.02;10.23;;;12.50;99.90;;;;;;4996345;28;20041;-88
2023/05/05 07:04:46;;;;;;;13.88;9.23;;;12.40;99.90;;;;;;5023298;28;20029;-88
2023/05/05 07:07:11;;;;;;;13.38;10.32;;;12.40;99.90;;;;;;5003905;28;20391;-88
2023/05/05 07:09:37;;;;;;;13.07;9.52;;;12.50;99.90;;;;;;5028500;28;20038;-89
2023/05/05 07:12:03;;;;;;;12.60;9.70;;;12.50;99.90;;;;;;5005942;28;20057;-89
2023/05/05 07:14:29;;;;;;;11.35;8.02;;;12.50;99.90;;;;;;5027110;28;20152;-90
2023/05/05 07:16:55;;;;;;;12.32;9.60;;;12.50;99.90;;;;;;5008322;28;20041;-88
2023/05/05 07:19:21;;;;;;;13.05;9.23;;;12.70;99.90;;;;;;5010441;28;20045;-90
2023/05/05 07:21:46;;;;;;;15.00;9.80;;;12.60;99.90;;;;;;5029265;28;20396;-90
2023/05/05 07:24:12;;;;;;;16.30;9.77;;;12.60;99.90;;;;;;5002868;28;20091;-89
2023/05/05 07:26:38;;;;;;;12.27;9.20;;;12.80;99.90;;;;;;5011447;28;20044;-90
2023/05/05 07:29:05;;;;;;;13.60;8.70;;;12.80;99.90;;;;;;5013864;28;20412;-89
2023/05/05 07:31:31;;;;;;;15.27;9.90;;;12.80;99.90;;;;;;4993987;28;20121;-89
2023/05/05 07:33:57;;;;;;;12.30;8.32;;;12.90;99.90;;;;;;5014282;28;20064;-90
2023/05/05 07:36:23;;;;;;;13.88;9.63;;;13.00;99.90;;;;;;5012187;28;20285;-90
2023/05/05 07:38:48;;;;;;;13.48;9.45;;;13.00;99.90;;;;;;4999081;28;20120;-94
2023/05/05 07:41:14;;;;;;;15.15;9.52;;;13.10;99.90;;;;;;5028576;28;20045;-89
2023/05/05 07:43:40;;;;;;;12.20;8.88;;;13.10;99.90;;;;;;4992411;28;20157;-91
2023/05/05 07:46:07;;;;;;;15.18;9.48;;;13.10;99.90;;;;;;5012895;28;20044;-89
2023/05/05 07:48:32;;;;;;;14.77;9.02;;;13.20;99.90;;;;;;5006918;28;20121;-90
2023/05/05 07:50:58;;;;;;;14.70;8.75;;;13.40;99.90;;;;;;5010587;28;20097;-90
2023/05/05 07:53:24;;;;;;;15.27;9.68;;;13.50;99.90;;;;;;5010437;28;20038;-88
2023/05/05 07:55:50;;;;;;;14.63;9.73;;;13.60;99.90;;;;;;5005698;28;20069;-89
2023/05/05 07:58:15;;;;;;;15.93;8.80;;;13.60;99.90;;;;;;5005813;28;20099;-89
2023/05/05 08:00:42;;;;;;;13.85;8.55;;;13.70;99.90;;;;;;5011699;28;20037;-89
2023/05/05 08:03:08;;;;;;;15.82;9.90;;;13.80;99.90;;;;;;5032015;28;20468;-89
2023/05/05 08:05:34;;;;;;;14.15;9.77;;;13.90;99.90;;;;;;5028671;28;20057;-90
2023/05/05 08:08:00;;;;;;;10.98;8.25;;;13.90;99.90;;;;;;4999779;28;20404;-89
2023/05/05 08:10:26;;;;;;;12.73;7.78;;;14.30;99.90;;;;;;5030794;28;20034;-90
2023/05/05 08:12:53;;;;;;;13.93;9.20;;;14.00;99.90;;;;;;5000078;28;20041;-84
2023/05/05 08:15:19;;;;;;;15.27;8.95;;;14.10;99.90;;;;;;5005210;28;20046;-85
2023/05/05 08:17:49;;;;;;;15.02;9.70;;;14.20;99.90;;;;;;5026123;28;20050;-86
2023/05/05 08:20:16;;;;;;;11.80;8.65;;;14.30;99.90;;;;;;5030979;28;20099;-84
2023/05/05 08:22:41;;;;;;;11.73;9.10;;;14.40;99.90;;;;;;5008855;28;20033;-85
2023/05/05 08:25:09;;;;;;;14.88;9.55;;;14.60;99.90;;;;;;4993869;28;20041;-84
2023/05/05 08:27:36;;;;;;;16.80;11.15;;;14.60;99.90;;;;;;4994501;28;20038;-82
2023/05/05 08:30:02;;;;;;;13.10;9.77;;;14.90;99.90;;;;;;5023504;28;20095;-83
2023/05/05 08:32:28;;;;;;;13.48;9.75;;;14.90;99.90;;;;;;5024597;28;20514;-83
2023/05/05 08:34:54;;;;;;;14.85;10.07;;;14.90;99.90;;;;;;5009984;28;20050;-84
2023/05/05 08:37:19;;;;;;;15.07;9.88;;;15.00;99.90;;;;;;5006317;28;20050;-83
2023/05/05 08:39:45;;;;;;;13.00;8.63;;;15.10;99.90;;;;;;5020418;28;20041;-83
2023/05/05 08:42:11;;;;;;;15.52;9.98;;;15.30;99.90;;;;;;5028077;28;20068;-83
2023/05/05 08:44:36;;;;;;;14.48;11.10;;;15.40;99.90;;;;;;4992541;28;20041;-84
2023/05/05 08:47:02;;;;;;;16.33;10.43;;;15.50;99.90;;;;;;5021828;28;20037;-84
2023/05/05 08:49:34;;;;;;;16.52;10.65;;;15.60;99.90;;;;;;5003824;28;20038;-85
2023/05/05 08:52:03;;;;;;;15.77;10.43;;;15.70;99.90;;;;;;5010126;28;20042;-84
2023/05/05 08:54:33;;;;;;;14.93;11.20;;;15.90;99.90;;;;;;5027377;28;20477;-84
2023/05/05 08:57:01;;;;;;;15.77;10.68;;;16.00;99.90;;;;;;5025174;28;20063;-83
2023/05/05 08:59:30;;;;;;;14.32;10.70;;;16.10;99.90;;;;;;5019426;28;20034;-90
2023/05/05 09:01:57;;;;;;;13.80;10.07;;;16.20;99.90;;;;;;5013550;28;20034;-89
2023/05/05 09:04:23;;;;;;;14.38;10.15;;;16.20;99.90;;;;;;5011051;28;20037;-89
2023/05/05 09:06:49;;;;;;;16.10;11.18;;;16.10;99.90;;;;;;5008452;28;20053;-90
2023/05/05 09:09:15;;;;;;;14.15;10.68;;;16.20;99.90;;;;;;5008093;28;20033;-90
2023/05/05 09:11:43;;;;;;;15.68;11.13;;;16.30;99.90;;;;;;5010556;28;20037;-90
2023/05/05 09:14:09;;;;;;;17.17;10.93;;;16.40;99.90;;;;;;5005187;28;20112;-90
2023/05/05 09:16:35;;;;;;;19.55;11.13;;;16.60;99.90;;;;;;5002571;28;20452;-92
2023/05/05 09:19:04;;;;;;;18.45;10.63;;;16.80;99.90;;;;;;4990046;28;20105;-91
2023/05/05 09:21:31;;;;;;;13.18;9.73;;;16.90;99.90;;;;;;5011496;28;20029;-88
2023/05/05 09:24:05;;;;;;;14.88;12.05;;;17.00;99.90;;;;;;5009912;28;20069;-87
2023/05/05 09:26:45;;;;;;;16.70;10.73;;;17.20;99.90;;;;;;5006118;28;20045;-88
2023/05/05 09:29:21;;;;;;;14.63;10.95;;;17.30;99.90;;;;;;5006926;28;20033;-89
2023/05/05 09:32:07;;;;;;;16.45;11.40;;;17.40;99.90;;;;;;5008444;28;20038;-86
2023/05/05 09:34:34;;;;;;;15.93;11.75;;;17.60;99.90;;;;;;5020287;28;20038;-89
2023/05/05 09:37:00;;;;;;;16.45;11.43;;;17.70;99.90;;;;;;4991947;28;20042;-93
2023/05/05 09:39:29;;;;;;;16.20;11.40;;;17.90;99.90;;;;;;5017796;28;20048;-96
2023/05/05 09:41:54;;;;;;;17.25;11.55;;;17.90;99.90;;;;;;4995743;28;20117;-95
2023/05/05 09:44:37;;;;;;;19.30;12.75;;;18.00;99.90;;;;;;5017281;28;20045;-93
2023/05/05 09:47:02;;;;;;;18.75;11.32;;;18.00;99.90;;;;;;4992638;28;20042;-91
2023/05/05 09:49:28;;;;;;;15.40;11.30;;;18.10;99.90;;;;;;5001723;28;20121;-91
2023/05/05 09:51:54;;;;;;;19.90;12.70;;;18.10;99.90;;;;;;5000433;28;20030;-91
2023/05/05 09:54:26;;;;;;;15.43;11.82;;;18.20;99.90;;;;;;5002643;28;20073;-87
2023/05/05 09:56:52;;;;;;;16.70;11.98;;;18.30;99.90;;;;;;4998771;28;20205;-92
2023/05/05 09:59:19;;;;;;;17.95;11.63;;;18.40;99.90;;;;;;4996631;28;20415;-91
2023/05/05 10:01:46;;;;;;;18.13;11.35;;;18.50;99.90;;;;;;4987622;28;20042;-90
2023/05/05 10:04:22;;;;;;;14.68;10.57;;;18.60;99.90;;;;;;5004275;28;20041;-91
2023/05/05 10:06:48;;;;;;;18.33;12.13;;;18.60;99.90;;;;;;5005233;28;20121;-92
2023/05/05 10:09:14;;;;;;;14.45;11.05;;;18.60;99.90;;;;;;5007544;28;20132;-92
2023/05/05 10:11:41;;;;;;;18.77;13.00;;;18.60;99.90;;;;;;4980160;28;20507;-91
2023/05/05 10:14:07;;;;;;;17.00;13.40;;;18.60;99.90;;;;;;4987292;28;20448;-92
2023/05/05 10:16:34;;;;;;;17.30;12.05;;;18.60;99.90;;;;;;5002132;28;20052;-93
2023/05/05 10:19:02;;;;;;;18.13;12.38;;;18.80;99.90;;;;;;4991120;28;20129;-89
2023/05/05 10:21:32;;;;;;;14.07;11.88;;;18.90;99.90;;;;;;5004088;28;20578;-91
2023/05/05 10:24:15;;;;;;;17.08;12.60;;;19.20;99.90;;;;;;5001562;28;20034;-91
2023/05/05 10:26:43;;;;;;;16.42;12.68;;;19.30;99.90;;;;;;5005310;28;20393;-93
2023/05/05 10:30:03;;;;;;;18.80;13.55;;;19.60;99.90;;;;;;4999169;28;20038;-91
2023/05/05 10:32:55;;;;;;;17.15;13.32;;;19.60;99.90;;;;;;4884694;29;20036;-94
2023/05/05 10:35:22;;;;;;;19.13;13.32;;;19.60;99.90;;;;;;4899323;29;20040;-88
2023/05/05 10:37:49;;;;;;;20.10;14.63;;;19.70;99.90;;;;;;4898113;29;20108;-87
2023/05/05 10:40:16;;;;;;;19.48;14.30;;;19.70;99.90;;;;;;4892499;29;20055;-88
2023/05/05 10:42:42;;;;;;;22.17;16.30;;;19.70;99.90;;;;;;4895950;29;20066;-88
2023/05/05 10:45:08;;;;;;;18.88;14.57;;;19.70;99.90;;;;;;4894576;29;20887;-87
2023/05/05 10:47:36;;;;;;;21.63;15.95;;;19.80;99.90;;;;;;4910478;29;20129;-87
2023/05/05 10:50:53;;;;;;;20.38;14.25;;;20.00;99.90;;;;;;4890097;29;20051;-86
2023/05/05 10:53:56;;;;;;;18.88;13.23;;;20.10;99.90;;;;;;4887367;29;20048;-86
2023/05/05 10:56:32;;;;;;;18.30;13.98;;;20.10;99.90;;;;;;4888333;29;20056;-87
2023/05/05 10:58:58;;;;;;;16.27;12.88;;;20.00;99.90;;;;;;4896330;29;20479;-86
2023/05/05 11:01:34;;;;;;;20.08;14.82;;;19.90;99.90;;;;;;4906301;29;20044;-86
2023/05/05 11:04:20;;;;;;;22.30;14.02;;;19.70;99.90;;;;;;4967056;28;20054;-86
2023/05/05 11:07:08;;;;;;;20.95;14.65;;;19.50;99.90;;;;;;5006150;28;20036;-86
2023/05/05 11:09:41;;;;;;;20.42;13.98;;;19.60;99.90;;;;;;4986529;28;20058;-86
2023/05/05 11:12:07;;;;;;;20.35;13.60;;;19.70;99.90;;;;;;4989218;28;20042;-87
2023/05/05 11:14:33;;;;;;;20.45;14.02;;;19.90;99.90;;;;;;4984542;28;20066;-87
2023/05/05 11:17:00;;;;;;;18.63;14.25;;;20.10;99.90;;;;;;5003906;28;20046;-87
2023/05/05 11:19:45;;;;;;;18.90;13.75;;;20.20;99.90;;;;;;4995805;28;20057;-87
2023/05/05 11:22:11;;;;;;;17.75;13.98;;;20.30;99.90;;;;;;4999098;28;20061;-86
2023/05/05 11:24:38;;;;;;;19.05;13.50;;;20.40;99.90;;;;;;5002214;28;20112;-89
2023/05/05 11:27:05;;;;;;;15.93;12.95;;;20.40;99.90;;;;;;4989424;28;20042;-87
2023/05/05 11:30:03;;;;;;;15.80;12.40;;;20.30;99.90;;;;;;5000371;28;20133;-87
2023/05/05 11:32:29;;;;;;;18.33;13.27;;;20.20;99.90;;;;;;4997239;28;20504;-86
2023/05/05 11:34:58;;;;;;;15.48;12.65;;;20.10;99.90;;;;;;5011639;28;20042;-87
2023/05/05 11:37:28;;;;;;;18.65;14.15;;;20.10;99.90;;;;;;5010754;28;20116;-87
2023/05/05 11:40:25;;;;;;;17.02;13.63;;;20.20;99.90;;;;;;5004100;28;20407;-87
2023/05/05 11:43:05;;;;;;;20.92;15.02;;;20.20;99.90;;;;;;5004219;28;20476;-86
2023/05/05 11:45:31;;;;;;;17.67;13.57;;;20.30;99.90;;;;;;5004822;28;20046;-88
2023/05/05 11:48:22;;;;;;;20.20;13.98;;;20.20;99.90;;;;;;4997528;28;20108;-87
2023/05/05 11:50:49;;;;;;;15.07;12.30;;;20.30;99.90;;;;;;5000207;28;20481;-89
2023/05/05 11:53:15;;;;;;;18.95;14.20;;;20.30;99.90;;;;;;4994011;28;20041;-88
2023/05/05 11:55:40;;;;;;;19.33;14.55;;;20.30;99.90;;;;;;4989226;28;20049;-91
2023/05/05 11:58:19;;;;;;;19.85;12.95;;;20.30;99.90;;;;;;5001590;28;20133;-92
2023/05/05 12:00:45;;;;;;;17.10;12.73;;;20.30;99.90;;;;;;5002706;28;20117;-91
2023/05/05 12:03:11;;;;;;;19.77;14.25;;;20.30;99.90;;;;;;4992807;28;20121;-93
2023/05/05 12:05:37;;;;;;;17.65;11.88;;;20.40;99.90;;;;;;5002182;28;20497;-92
2023/05/05 12:08:03;;;;;;;14.52;10.27;;;20.40;99.90;;;;;;4997741;28;20058;-94
2023/05/05 12:10:29;;;;;;;12.63;9.88;;;20.50;99.90;;;;;;4988478;28;20037;-92
2023/05/05 12:12:55;;;;;;;13.55;9.43;;;20.50;99.90;;;;;;4989502;28;20068;-92
2023/05/05 12:15:28;;;;;;;13.32;9.05;;;20.50;99.90;;;;;;5004622;28;20065;-92
2023/05/05 12:17:54;;;;;;;12.90;8.55;;;20.60;99.90;;;;;;4986826;28;20062;-92
2023/05/05 12:20:30;;;;;;;12.50;9.32;;;20.60;99.90;;;;;;4978739;28;20070;-90
2023/05/05 12:23:00;;;;;;;14.25;9.65;;;20.70;99.90;;;;;;4990465;28;20038;-90
2023/05/05 12:25:34;;;;;;;16.15;11.05;;;20.70;99.90;;;;;;5012847;28;20069;-87
2023/05/05 12:28:00;;;;;;;14.23;10.45;;;20.70;99.90;;;;;;4999614;28;20092;-91
2023/05/05 12:30:25;;;;;;;15.40;11.40;;;20.60;99.90;;;;;;5004196;28;20045;-94
2023/05/05 12:33:00;;;;;;;14.15;10.82;;;20.60;99.90;;;;;;4995961;28;20038;-93
2023/05/05 12:35:27;;;;;;;14.48;9.27;;;20.60;99.90;;;;;;5020111;28;20038;-93
2023/05/05 12:37:52;;;;;;;12.57;9.00;;;20.60;99.90;;;;;;5006990;28;20034;-94
2023/05/05 12:40:44;;;;;;;12.57;7.57;;;20.70;99.90;;;;;;5025656;28;20071;-93
2023/05/05 12:43:32;;;;;;;10.60;7.15;;;20.60;99.90;;;;;;5005341;28;20045;-93
2023/05/05 12:45:58;;;;;;;12.10;8.15;;;20.50;99.90;;;;;;4995584;28;20042;-93
2023/05/05 12:48:24;;;;;;;10.38;7.20;;;20.40;99.90;;;;;;5013548;28;20041;-94